Barnes, Wisconsin
Current Conditions -  °F | °C
As of 1:35 PM on Friday 24 Oct 2014 (Local Time) from KOLG Reporting Station
Clear Clear  
Wind Chill: 64°   Ceiling: Unl
Heat Index: 64°   Visibility: 10mi
Dew Point: 50°   Wind: 12mph
Humidity: 59%   Direction: 210°SSW
Pressure: 29.81"   Gusts: 16mph
Location:  46.3544°N, 91.6708°W
Report Text: KOLG 241835Z AUTO 21010G14KT 10SM CLR 18/10 A2981 RMK AO1
Loading
Personal Weather Stations






























Interactive Weather Map
Tropical Storm Tracking
New forecast layout! Learn more

10-Day Weather Forecast

Advertisements
Track Severe Weather on mobile